sensor_id;sensor_type;location;lat;lon;timestamp;pressure;altitude;pressure_sealevel;temperature;humidity
71774;BME280;59607;52.130;5.430;2023-05-15T00:00:56;101641.25;;;12.96;100.00
71774;BME280;59607;52.130;5.430;2023-05-15T00:03:28;101644.88;;;12.95;100.00
71774;BME280;59607;52.130;5.430;2023-05-15T00:05:58;101652.09;;;12.93;100.00
71774;BME280;59607;52.130;5.430;2023-05-15T00:08:24;101643.72;;;12.89;100.00
71774;BME280;59607;52.130;5.430;2023-05-15T00:10:56;101649.78;;;12.90;100.00
71774;BME280;59607;52.130;5.430;2023-05-15T00:13:27;101638.59;;;12.88;100.00
71774;BME280;59607;52.130;5.430;2023-05-15T00:16:00;101640.56;;;12.86;100.00
71774;BME280;59607;52.130;5.430;2023-05-15T00:18:26;101634.78;;;12.82;100.00
71774;BME280;59607;52.130;5.430;2023-05-15T00:20:56;101633.13;;;12.81;100.00
71774;BME280;59607;52.130;5.430;2023-05-15T00:23:23;101636.72;;;12.80;100.00
71774;BME280;59607;52.130;5.430;2023-05-15T00:25:49;101634.09;;;12.80;100.00
71774;BME280;59607;52.130;5.430;2023-05-15T00:28:16;101625.72;;;12.76;100.00
71774;BME280;59607;52.130;5.430;2023-05-15T00:30:42;101640.31;;;12.70;100.00
71774;BME280;59607;52.130;5.430;2023-05-15T00:33:09;101637.47;;;12.64;100.00
71774;BME280;59607;52.130;5.430;2023-05-15T00:35:35;101633.53;;;12.59;100.00
71774;BME280;59607;52.130;5.430;2023-05-15T00:38:01;101640.59;;;12.59;100.00
71774;BME280;59607;52.130;5.430;2023-05-15T00:40:37;101626.94;;;12.55;100.00
71774;BME280;59607;52.130;5.430;2023-05-15T00:43:09;101628.22;;;12.51;100.00
71774;BME280;59607;52.130;5.430;2023-05-15T00:45:41;101629.53;;;12.47;100.00
71774;BME280;59607;52.130;5.430;2023-05-15T00:48:08;101620.59;;;12.40;100.00
71774;BME280;59607;52.130;5.430;2023-05-15T00:50:38;101614.78;;;12.36;100.00
71774;BME280;59607;52.130;5.430;2023-05-15T00:53:06;101614.94;;;12.34;100.00
71774;BME280;59607;52.130;5.430;2023-05-15T00:55:35;101617.75;;;12.33;100.00
71774;BME280;59607;52.130;5.430;2023-05-15T00:58:06;101617.09;;;12.31;100.00
71774;BME280;59607;52.130;5.430;2023-05-15T01:00:33;101618.38;;;12.27;100.00
71774;BME280;59607;52.130;5.430;2023-05-15T01:03:05;101612.94;;;12.28;100.00
71774;BME280;59607;52.130;5.430;2023-05-15T01:05:31;101610.63;;;12.25;100.00
71774;BME280;59607;52.130;5.430;2023-05-15T01:10:57;101615.38;;;12.21;100.00
71774;BME280;59607;52.130;5.430;2023-05-15T01:13:37;101607.13;;;12.16;100.00
71774;BME280;59607;52.130;5.430;2023-05-15T01:16:13;101618.78;;;12.14;100.00
71774;BME280;59607;52.130;5.430;2023-05-15T01:18:39;101612.84;;;12.12;100.00
71774;BME280;59607;52.130;5.430;2023-05-15T01:27:13;101606.16;;;11.99;100.00
71774;BME280;59607;52.130;5.430;2023-05-15T01:38:37;101595.56;;;11.91;100.00
71774;BME280;59607;52.130;5.430;2023-05-15T01:44:14;101596.25;;;11.75;100.00
71774;BME280;59607;52.130;5.430;2023-05-15T01:46:45;101589.22;;;11.75;100.00
71774;BME280;59607;52.130;5.430;2023-05-15T01:49:18;101587.72;;;11.72;100.00
71774;BME280;59607;52.130;5.430;2023-05-15T01:51:54;101591.38;;;11.80;100.00
71774;BME280;59607;52.130;5.430;2023-05-15T01:54:29;101591.38;;;11.80;100.00
71774;BME280;59607;52.130;5.430;2023-05-15T01:56:58;101588.44;;;11.83;100.00
71774;BME280;59607;52.130;5.430;2023-05-15T01:59:26;101584.69;;;11.85;100.00
71774;BME280;59607;52.130;5.430;2023-05-15T02:02:01;101599.56;;;11.95;100.00
71774;BME280;59607;52.130;5.430;2023-05-15T02:04:33;101586.63;;;12.02;100.00
71774;BME280;59607;52.130;5.430;2023-05-15T02:07:03;101597.78;;;12.04;100.00
71774;BME280;59607;52.130;5.430;2023-05-15T02:09:33;101592.09;;;12.08;100.00
71774;BME280;59607;52.130;5.430;2023-05-15T02:12:06;101607.59;;;12.12;100.00
71774;BME280;59607;52.130;5.430;2023-05-15T02:14:33;101594.28;;;12.13;100.00
71774;BME280;59607;52.130;5.430;2023-05-15T02:17:17;101595.63;;;12.17;100.00
71774;BME280;59607;52.130;5.430;2023-05-15T02:20:04;101597.41;;;12.17;100.00
71774;BME280;59607;52.130;5.430;2023-05-15T02:22:33;101596.63;;;12.16;100.00
71774;BME280;59607;52.130;5.430;2023-05-15T02:25:06;101606.31;;;12.16;100.00
71774;BME280;59607;52.130;5.430;2023-05-15T02:27:45;101595.47;;;12.19;100.00
71774;BME280;59607;52.130;5.430;2023-05-15T02:30:39;101605.84;;;12.20;100.00
71774;BME280;59607;52.130;5.430;2023-05-15T02:33:25;101596.47;;;12.18;100.00
71774;BME280;59607;52.130;5.430;2023-05-15T02:36:07;101599.59;;;12.21;100.00
71774;BME280;59607;52.130;5.430;2023-05-15T02:38:45;101599.28;;;12.25;100.00
71774;BME280;59607;52.130;5.430;2023-05-15T02:41:16;101600.09;;;12.25;100.00
71774;BME280;59607;52.130;5.430;2023-05-15T02:43:47;101599.44;;;12.23;100.00
71774;BME280;59607;52.130;5.430;2023-05-15T02:46:23;101593.69;;;12.19;100.00
71774;BME280;59607;52.130;5.430;2023-05-15T02:48:51;101595.63;;;12.17;100.00
71774;BME280;59607;52.130;5.430;2023-05-15T02:51:21;101590.88;;;12.21;100.00
71774;BME280;59607;52.130;5.430;2023-05-15T02:53:51;101597.25;;;12.18;100.00
71774;BME280;59607;52.130;5.430;2023-05-15T02:56:17;101596.94;;;12.21;100.00
71774;BME280;59607;52.130;5.430;2023-05-15T02:58:46;101596.00;;;12.23;100.00
71774;BME280;59607;52.130;5.430;2023-05-15T03:01:35;101595.09;;;12.14;100.00
71774;BME280;59607;52.130;5.430;2023-05-15T03:04:22;101588.50;;;12.09;100.00
71774;BME280;59607;52.130;5.430;2023-05-15T03:06:51;101578.91;;;12.00;100.00
71774;BME280;59607;52.130;5.430;2023-05-15T03:09:28;101586.50;;;11.85;100.00
71774;BME280;59607;52.130;5.430;2023-05-15T03:11:59;101591.75;;;11.85;100.00
71774;BME280;59607;52.130;5.430;2023-05-15T03:14:30;101587.19;;;11.87;100.00
71774;BME280;59607;52.130;5.430;2023-05-15T03:16:56;101592.28;;;11.89;100.00
71774;BME280;59607;52.130;5.430;2023-05-15T03:19:25;101581.63;;;11.90;100.00
71774;BME280;59607;52.130;5.430;2023-05-15T03:21:51;101590.47;;;11.89;100.00
71774;BME280;59607;52.130;5.430;2023-05-15T03:24:24;101596.19;;;11.84;100.00
71774;BME280;59607;52.130;5.430;2023-05-15T03:26:50;101588.59;;;11.81;100.00
71774;BME280;59607;52.130;5.430;2023-05-15T03:29:17;101582.47;;;11.72;100.00
71774;BME280;59607;52.130;5.430;2023-05-15T03:31:57;101576.47;;;11.62;100.00
71774;BME280;59607;52.130;5.430;2023-05-15T03:34:30;101582.53;;;11.63;100.00
71774;BME280;59607;52.130;5.430;2023-05-15T03:36:57;101583.28;;;11.73;100.00
71774;BME280;59607;52.130;5.430;2023-05-15T03:39:24;101580.34;;;11.76;100.00
71774;BME280;59607;52.130;5.430;2023-05-15T03:41:56;101583.34;;;11.81;100.00
71774;BME280;59607;52.130;5.430;2023-05-15T03:44:24;101578.25;;;11.80;100.00
71774;BME280;59607;52.130;5.430;2023-05-15T03:46:51;101578.84;;;11.73;100.00
71774;BME280;59607;52.130;5.430;2023-05-15T03:49:20;101572.97;;;11.80;100.00
71774;BME280;59607;52.130;5.430;2023-05-15T03:51:47;101569.53;;;11.79;100.00
71774;BME280;59607;52.130;5.430;2023-05-15T03:54:25;101569.19;;;11.74;100.00
71774;BME280;59607;52.130;5.430;2023-05-15T03:56:51;101573.69;;;11.64;100.00
71774;BME280;59607;52.130;5.430;2023-05-15T03:59:29;101570.22;;;11.63;100.00
71774;BME280;59607;52.130;5.430;2023-05-15T04:01:56;101581.47;;;11.73;100.00
71774;BME280;59607;52.130;5.430;2023-05-15T04:04:40;101579.88;;;11.81;100.00
71774;BME280;59607;52.130;5.430;2023-05-15T04:07:10;101588.28;;;11.84;100.00
71774;BME280;59607;52.130;5.430;2023-05-15T04:09:36;101592.44;;;11.87;100.00
71774;BME280;59607;52.130;5.430;2023-05-15T04:12:11;101586.72;;;11.92;100.00
71774;BME280;59607;52.130;5.430;2023-05-15T04:14:37;101587.69;;;11.91;100.00
71774;BME280;59607;52.130;5.430;2023-05-15T04:17:04;101579.47;;;11.94;100.00
71774;BME280;59607;52.130;5.430;2023-05-15T04:19:36;101583.31;;;12.00;100.00
71774;BME280;59607;52.130;5.430;2023-05-15T04:22:05;101589.41;;;12.00;100.00
71774;BME280;59607;52.130;5.430;2023-05-15T04:24:34;101586.94;;;11.99;100.00
71774;BME280;59607;52.130;5.430;2023-05-15T04:27:08;101590.69;;;11.96;100.00
71774;BME280;59607;52.130;5.430;2023-05-15T04:29:50;101596.78;;;11.96;100.00
71774;BME280;59607;52.130;5.430;2023-05-15T04:32:26;101593.69;;;12.01;100.00
71774;BME280;59607;52.130;5.430;2023-05-15T04:34:54;101588.03;;;12.14;100.00
71774;BME280;59607;52.130;5.430;2023-05-15T04:37:39;101589.22;;;12.20;100.00
71774;BME280;59607;52.130;5.430;2023-05-15T04:40:08;101588.75;;;12.25;100.00
71774;BME280;59607;52.130;5.430;2023-05-15T04:42:35;101589.78;;;12.32;100.00
71774;BME280;59607;52.130;5.430;2023-05-15T04:45:05;101588.22;;;12.48;100.00
71774;BME280;59607;52.130;5.430;2023-05-15T04:47:36;101585.78;;;12.54;100.00
71774;BME280;59607;52.130;5.430;2023-05-15T04:50:09;101595.59;;;12.79;100.00
71774;BME280;59607;52.130;5.430;2023-05-15T04:52:43;101601.03;;;12.77;100.00
71774;BME280;59607;52.130;5.430;2023-05-15T04:55:12;101591.41;;;12.59;100.00
71774;BME280;59607;52.130;5.430;2023-05-15T04:57:42;101597.78;;;12.49;100.00
71774;BME280;59607;52.130;5.430;2023-05-15T05:00:12;101603.84;;;12.41;100.00
71774;BME280;59607;52.130;5.430;2023-05-15T05:02:41;101595.78;;;12.42;100.00
71774;BME280;59607;52.130;5.430;2023-05-15T05:05:10;101586.22;;;12.41;100.00
71774;BME280;59607;52.130;5.430;2023-05-15T05:07:43;101593.69;;;12.54;100.00
71774;BME280;59607;52.130;5.430;2023-05-15T05:10:11;101591.41;;;12.59;100.00
71774;BME280;59607;52.130;5.430;2023-05-15T05:12:40;101599.72;;;12.73;100.00
71774;BME280;59607;52.130;5.430;2023-05-15T05:15:08;101598.31;;;12.95;99.75
71774;BME280;59607;52.130;5.430;2023-05-15T05:17:34;101601.81;;;13.13;99.27
71774;BME280;59607;52.130;5.430;2023-05-15T05:20:01;101606.25;;;13.20;98.50
71774;BME280;59607;52.130;5.430;2023-05-15T05:22:32;101611.53;;;13.20;96.53
71774;BME280;59607;52.130;5.430;2023-05-15T05:24:59;101602.97;;;13.18;96.79
71774;BME280;59607;52.130;5.430;2023-05-15T05:27:25;101606.59;;;13.17;97.08
71774;BME280;59607;52.130;5.430;2023-05-15T05:30:02;101602.00;;;13.28;97.20
71774;BME280;59607;52.130;5.430;2023-05-15T05:32:29;101604.50;;;13.38;94.75
71774;BME280;59607;52.130;5.430;2023-05-15T05:34:58;101595.16;;;13.60;93.59
71774;BME280;59607;52.130;5.430;2023-05-15T05:37:25;101595.00;;;13.78;91.23
71774;BME280;59607;52.130;5.430;2023-05-15T05:39:51;101588.91;;;13.94;91.27
71774;BME280;59607;52.130;5.430;2023-05-15T05:42:35;101588.81;;;14.28;89.06
71774;BME280;59607;52.130;5.430;2023-05-15T05:45:05;101588.91;;;14.60;85.72
71774;BME280;59607;52.130;5.430;2023-05-15T05:47:31;101589.44;;;14.47;85.10
71774;BME280;59607;52.130;5.430;2023-05-15T05:50:07;101584.78;;;15.29;82.18
71774;BME280;59607;52.130;5.430;2023-05-15T05:52:34;101587.59;;;14.96;80.91
71774;BME280;59607;52.130;5.430;2023-05-15T05:55:00;101592.13;;;14.78;81.77
71774;BME280;59607;52.130;5.430;2023-05-15T05:57:27;101595.09;;;14.84;82.01
71774;BME280;59607;52.130;5.430;2023-05-15T06:00:04;101590.78;;;14.83;82.36
71774;BME280;59607;52.130;5.430;2023-05-15T06:02:35;101597.44;;;14.70;82.17
71774;BME280;59607;52.130;5.430;2023-05-15T06:05:03;101593.81;;;14.71;82.95
71774;BME280;59607;52.130;5.430;2023-05-15T06:07:32;101584.25;;;15.72;77.69
71774;BME280;59607;52.130;5.430;2023-05-15T06:10:09;101593.06;;;15.88;74.43
71774;BME280;59607;52.130;5.430;2023-05-15T06:12:42;101594.47;;;15.60;76.96
71774;BME280;59607;52.130;5.430;2023-05-15T06:15:10;101586.28;;;16.09;75.60
71774;BME280;59607;52.130;5.430;2023-05-15T06:17:51;101581.16;;;16.22;74.72
71774;BME280;59607;52.130;5.430;2023-05-15T06:20:20;101577.09;;;16.35;73.57
71774;BME280;59607;52.130;5.430;2023-05-15T06:22:56;101574.22;;;16.51;72.88
71774;BME280;59607;52.130;5.430;2023-05-15T06:25:23;101580.34;;;16.07;72.76
71774;BME280;59607;52.130;5.430;2023-05-15T06:27:52;101585.00;;;16.20;73.04
71774;BME280;59607;52.130;5.430;2023-05-15T06:30:18;101577.31;;;16.55;71.75
71774;BME280;59607;52.130;5.430;2023-05-15T06:32:52;101580.53;;;16.50;71.41
71774;BME280;59607;52.130;5.430;2023-05-15T06:35:18;101576.78;;;16.60;70.92
71774;BME280;59607;52.130;5.430;2023-05-15T06:37:50;101571.38;;;17.05;70.14
71774;BME280;59607;52.130;5.430;2023-05-15T06:40:23;101574.25;;;17.47;66.76
71774;BME280;59607;52.130;5.430;2023-05-15T06:42:52;101573.38;;;16.66;67.56
71774;BME280;59607;52.130;5.430;2023-05-15T06:45:18;101577.91;;;16.20;71.48
71774;BME280;59607;52.130;5.430;2023-05-15T06:47:45;101578.88;;;16.64;69.65
71774;BME280;59607;52.130;5.430;2023-05-15T06:50:14;101577.59;;;16.60;69.15
71774;BME280;59607;52.130;5.430;2023-05-15T06:52:46;101581.56;;;16.86;68.19
71774;BME280;59607;52.130;5.430;2023-05-15T06:55:14;101577.59;;;17.12;67.38
71774;BME280;59607;52.130;5.430;2023-05-15T06:57:46;101574.66;;;18.01;64.48
71774;BME280;59607;52.130;5.430;2023-05-15T07:00:13;101573.41;;;18.26;63.63
71774;BME280;59607;52.130;5.430;2023-05-15T07:02:50;101579.66;;;17.89;61.72
71774;BME280;59607;52.130;5.430;2023-05-15T07:05:18;101585.44;;;17.06;65.58
71774;BME280;59607;52.130;5.430;2023-05-15T07:07:53;101584.50;;;16.92;65.85
71774;BME280;59607;52.130;5.430;2023-05-15T07:10:21;101584.31;;;16.93;67.08
71774;BME280;59607;52.130;5.430;2023-05-15T07:12:50;101584.47;;;17.50;65.15
71774;BME280;59607;52.130;5.430;2023-05-15T07:15:20;101571.75;;;17.68;62.74
71774;BME280;59607;52.130;5.430;2023-05-15T07:17:49;101578.09;;;17.45;64.16
71774;BME280;59607;52.130;5.430;2023-05-15T07:20:19;101580.13;;;17.21;63.54
71774;BME280;59607;52.130;5.430;2023-05-15T07:22:45;101574.63;;;17.22;64.10
71774;BME280;59607;52.130;5.430;2023-05-15T07:25:22;101579.63;;;17.32;65.33
71774;BME280;59607;52.130;5.430;2023-05-15T07:27:50;101580.44;;;17.33;64.06
71774;BME280;59607;52.130;5.430;2023-05-15T07:30:19;101580.97;;;17.06;63.53
71774;BME280;59607;52.130;5.430;2023-05-15T07:32:47;101580.94;;;16.69;64.92
71774;BME280;59607;52.130;5.430;2023-05-15T07:35:13;101586.66;;;16.51;66.69
71774;BME280;59607;52.130;5.430;2023-05-15T07:37:40;101585.75;;;16.96;66.32
71774;BME280;59607;52.130;5.430;2023-05-15T07:40:20;101579.59;;;17.76;63.93
71774;BME280;59607;52.130;5.430;2023-05-15T07:42:48;101577.16;;;18.45;62.84
71774;BME280;59607;52.130;5.430;2023-05-15T07:45:14;101572.53;;;18.68;60.94
71774;BME280;59607;52.130;5.430;2023-05-15T07:47:45;101575.34;;;19.15;60.65
71774;BME280;59607;52.130;5.430;2023-05-15T07:50:19;101582.88;;;19.05;59.91
71774;BME280;59607;52.130;5.430;2023-05-15T07:52:45;101577.72;;;18.96;60.16
71774;BME280;59607;52.130;5.430;2023-05-15T07:55:15;101576.06;;;18.82;60.35
71774;BME280;59607;52.130;5.430;2023-05-15T07:57:44;101571.28;;;18.57;60.48
71774;BME280;59607;52.130;5.430;2023-05-15T08:00:11;101570.81;;;18.11;61.34
71774;BME280;59607;52.130;5.430;2023-05-15T08:02:39;101565.34;;;17.84;62.88
71774;BME280;59607;52.130;5.430;2023-05-15T08:05:13;101565.47;;;18.04;62.68
71774;BME280;59607;52.130;5.430;2023-05-15T08:07:42;101566.69;;;18.37;63.16
71774;BME280;59607;52.130;5.430;2023-05-15T08:10:11;101570.81;;;18.46;61.67
71774;BME280;59607;52.130;5.430;2023-05-15T08:12:37;101567.22;;;18.68;61.88
71774;BME280;59607;52.130;5.430;2023-05-15T08:15:09;101573.97;;;18.64;60.04
71774;BME280;59607;52.130;5.430;2023-05-15T08:17:41;101562.81;;;18.40;59.23
71774;BME280;59607;52.130;5.430;2023-05-15T08:20:12;101572.72;;;18.59;58.09
71774;BME280;59607;52.130;5.430;2023-05-15T08:22:48;101564.13;;;18.57;58.65
71774;BME280;59607;52.130;5.430;2023-05-15T08:25:15;101567.78;;;19.26;58.83
71774;BME280;59607;52.130;5.430;2023-05-15T08:27:44;101569.44;;;19.60;57.74
71774;BME280;59607;52.130;5.430;2023-05-15T08:30:12;101567.78;;;19.80;56.54
71774;BME280;59607;52.130;5.430;2023-05-15T08:32:45;101570.25;;;19.75;57.68
71774;BME280;59607;52.130;5.430;2023-05-15T08:35:11;101572.91;;;19.61;56.33
71774;BME280;59607;52.130;5.430;2023-05-15T08:37:38;101565.34;;;19.38;55.96
71774;BME280;59607;52.130;5.430;2023-05-15T08:40:05;101570.44;;;19.26;56.32
71774;BME280;59607;52.130;5.430;2023-05-15T08:42:49;101572.59;;;18.81;56.88
71774;BME280;59607;52.130;5.430;2023-05-15T08:45:19;101577.47;;;18.71;56.63
71774;BME280;59607;52.130;5.430;2023-05-15T08:47:48;101564.19;;;18.78;57.58
71774;BME280;59607;52.130;5.430;2023-05-15T08:50:18;101563.31;;;18.57;56.62
71774;BME280;59607;52.130;5.430;2023-05-15T08:52:47;101561.66;;;18.49;57.67
71774;BME280;59607;52.130;5.430;2023-05-15T08:55:21;101560.47;;;18.58;57.81
71774;BME280;59607;52.130;5.430;2023-05-15T08:57:50;101577.69;;;18.76;57.69
71774;BME280;59607;52.130;5.430;2023-05-15T09:00:19;101567.50;;;18.93;57.72
71774;BME280;59607;52.130;5.430;2023-05-15T09:02:53;101563.50;;;19.18;58.47
71774;BME280;59607;52.130;5.430;2023-05-15T09:05:22;101565.34;;;19.24;57.13
71774;BME280;59607;52.130;5.430;2023-05-15T09:07:52;101570.59;;;19.04;57.59
71774;BME280;59607;52.130;5.430;2023-05-15T09:10:23;101569.44;;;19.40;57.82
71774;BME280;59607;52.130;5.430;2023-05-15T09:12:52;101569.44;;;19.60;55.96
71774;BME280;59607;52.130;5.430;2023-05-15T09:15:21;101573.31;;;19.58;57.10
71774;BME280;59607;52.130;5.430;2023-05-15T09:17:51;101576.41;;;19.61;56.69
71774;BME280;59607;52.130;5.430;2023-05-15T09:20:37;101581.09;;;19.73;56.83
71774;BME280;59607;52.130;5.430;2023-05-15T09:23:04;101578.66;;;19.78;56.02
71774;BME280;59607;52.130;5.430;2023-05-15T09:25:46;101574.53;;;19.76;56.11
71774;BME280;59607;52.130;5.430;2023-05-15T09:28:31;101571.66;;;19.97;56.91
71774;BME280;59607;52.130;5.430;2023-05-15T09:31:04;101578.41;;;20.07;57.07
71774;BME280;59607;52.130;5.430;2023-05-15T09:33:58;101567.19;;;19.57;57.86
71774;BME280;59607;52.130;5.430;2023-05-15T09:36:32;101572.91;;;19.61;58.93
71774;BME280;59607;52.130;5.430;2023-05-15T09:39:04;101571.03;;;20.16;58.14
71774;BME280;59607;52.130;5.430;2023-05-15T09:41:40;101572.84;;;20.22;57.14
71774;BME280;59607;52.130;5.430;2023-05-15T09:44:25;101566.28;;;20.25;58.57
71774;BME280;59607;52.130;5.430;2023-05-15T09:46:53;101571.44;;;20.65;57.90
71774;BME280;59607;52.130;5.430;2023-05-15T09:49:20;101565.34;;;20.58;56.52
71774;BME280;59607;52.130;5.430;2023-05-15T09:51:47;101565.22;;;20.32;57.10
71774;BME280;59607;52.130;5.430;2023-05-15T09:54:22;101570.84;;;20.10;58.40
71774;BME280;59607;52.130;5.430;2023-05-15T09:56:55;101564.34;;;20.45;56.85
71774;BME280;59607;52.130;5.430;2023-05-15T09:59:31;101566.44;;;20.37;57.46
71774;BME280;59607;52.130;5.430;2023-05-15T10:02:28;101561.81;;;20.12;57.54
71774;BME280;59607;52.130;5.430;2023-05-15T10:05:14;101572.28;;;20.06;58.79
71774;BME280;59607;52.130;5.430;2023-05-15T10:07:42;101571.03;;;19.89;60.18
71774;BME280;59607;52.130;5.430;2023-05-15T10:10:08;101573.13;;;19.73;59.64
71774;BME280;59607;52.130;5.430;2023-05-15T10:12:35;101573.13;;;19.46;61.36
71774;BME280;59607;52.130;5.430;2023-05-15T10:15:10;101577.44;;;19.33;62.26
71774;BME280;59607;52.130;5.430;2023-05-15T10:17:39;101580.47;;;19.30;61.49
71774;BME280;59607;52.130;5.430;2023-05-15T10:20:20;101585.38;;;19.20;61.43
71774;BME280;59607;52.130;5.430;2023-05-15T10:22:55;101579.38;;;18.91;61.13
71774;BME280;59607;52.130;5.430;2023-05-15T10:25:40;101567.16;;;18.54;63.04
71774;BME280;59607;52.130;5.430;2023-05-15T10:28:08;101587.16;;;18.43;64.11
71774;BME280;59607;52.130;5.430;2023-05-15T10:30:41;101593.16;;;18.66;64.26
71774;BME280;59607;52.130;5.430;2023-05-15T10:33:09;101588.22;;;18.49;64.13
71774;BME280;59607;52.130;5.430;2023-05-15T10:35:43;101585.88;;;18.32;64.79
71774;BME280;59607;52.130;5.430;2023-05-15T10:38:10;101595.63;;;18.25;66.18
71774;BME280;59607;52.130;5.430;2023-05-15T10:40:37;101593.47;;;18.35;66.09
71774;BME280;59607;52.130;5.430;2023-05-15T10:43:09;101594.28;;;18.43;65.35
71774;BME280;59607;52.130;5.430;2023-05-15T10:45:37;101601.13;;;18.23;66.85
71774;BME280;59607;52.130;5.430;2023-05-15T10:48:18;101590.00;;;18.06;67.13
71774;BME280;59607;52.130;5.430;2023-05-15T10:50:48;101591.09;;;17.90;67.86
71774;BME280;59607;52.130;5.430;2023-05-15T10:53:19;101586.84;;;17.67;69.49
71774;BME280;59607;52.130;5.430;2023-05-15T10:55:48;101593.06;;;17.52;69.98
71774;BME280;59607;52.130;5.430;2023-05-15T10:58:24;101590.22;;;17.54;70.82
71774;BME280;59607;52.130;5.430;2023-05-15T11:00:51;101594.94;;;17.59;70.97
71774;BME280;59607;52.130;5.430;2023-05-15T11:03:37;101582.25;;;17.76;70.40
71774;BME280;59607;52.130;5.430;2023-05-15T11:06:15;101593.59;;;17.70;69.69
71774;BME280;59607;52.130;5.430;2023-05-15T11:08:44;101586.13;;;17.51;70.65
71774;BME280;59607;52.130;5.430;2023-05-15T11:14:25;101589.44;;;17.60;71.91
71774;BME280;59607;52.130;5.430;2023-05-15T11:22:17;101591.25;;;17.82;71.04
71774;BME280;59607;52.130;5.430;2023-05-15T11:24:58;101584.53;;;17.86;70.01
71774;BME280;59607;52.130;5.430;2023-05-15T11:27:30;101583.34;;;17.88;69.67
71774;BME280;59607;52.130;5.430;2023-05-15T11:30:20;101589.38;;;17.75;70.24
71774;BME280;59607;52.130;5.430;2023-05-15T11:33:00;101594.47;;;17.48;71.01
71774;BME280;59607;52.130;5.430;2023-05-15T11:35:28;101591.09;;;17.39;72.07
71774;BME280;59607;52.130;5.430;2023-05-15T11:38:23;101591.19;;;17.46;71.82
71774;BME280;59607;52.130;5.430;2023-05-15T11:40:59;101592.31;;;17.37;72.11
71774;BME280;59607;52.130;5.430;2023-05-15T11:43:31;101593.00;;;17.24;72.81
71774;BME280;59607;52.130;5.430;2023-05-15T11:46:09;101588.13;;;17.27;72.13
71774;BME280;59607;52.130;5.430;2023-05-15T11:48:58;101576.22;;;17.38;72.62
71774;BME280;59607;52.130;5.430;2023-05-15T11:51:30;101576.31;;;17.52;72.75
71774;BME280;59607;52.130;5.430;2023-05-15T11:53:56;101583.34;;;17.60;73.08
71774;BME280;59607;52.130;5.430;2023-05-15T11:56:26;101579.41;;;17.84;72.44
71774;BME280;59607;52.130;5.430;2023-05-15T11:58:59;101578.50;;;17.99;68.98
71774;BME280;59607;52.130;5.430;2023-05-15T12:01:44;101581.16;;;17.99;67.37
71774;BME280;59607;52.130;5.430;2023-05-15T12:04:17;101574.53;;;18.17;67.64
71774;BME280;59607;52.130;5.430;2023-05-15T12:06:45;101579.13;;;18.30;65.71
71774;BME280;59607;52.130;5.430;2023-05-15T12:09:14;101570.00;;;18.46;65.32
71774;BME280;59607;52.130;5.430;2023-05-15T12:11:54;101574.31;;;18.47;65.16
71774;BME280;59607;52.130;5.430;2023-05-15T12:14:30;101580.72;;;18.66;66.81
71774;BME280;59607;52.130;5.430;2023-05-15T12:17:00;101574.88;;;18.98;64.88
71774;BME280;59607;52.130;5.430;2023-05-15T12:19:33;101570.81;;;19.02;65.66
71774;BME280;59607;52.130;5.430;2023-05-15T12:21:59;101572.50;;;19.23;63.97
71774;BME280;59607;52.130;5.430;2023-05-15T12:24:26;101572.09;;;19.40;62.86
71774;BME280;59607;52.130;5.430;2023-05-15T12:26:52;101577.22;;;19.55;60.71
71774;BME280;59607;52.130;5.430;2023-05-15T12:29:34;101575.97;;;19.65;61.06
71774;BME280;59607;52.130;5.430;2023-05-15T12:32:07;101575.19;;;19.64;60.09
71774;BME280;59607;52.130;5.430;2023-05-15T12:34:42;101562.84;;;19.97;59.67
71774;BME280;59607;52.130;5.430;2023-05-15T12:37:11;101564.66;;;20.17;58.37
71774;BME280;59607;52.130;5.430;2023-05-15T12:39:56;101564.66;;;20.24;58.21
71774;BME280;59607;52.130;5.430;2023-05-15T12:42:27;101559.88;;;20.32;58.72
71774;BME280;59607;52.130;5.430;2023-05-15T12:44:54;101560.38;;;20.62;56.66
71774;BME280;59607;52.130;5.430;2023-05-15T12:47:28;101555.78;;;20.82;56.13
71774;BME280;59607;52.130;5.430;2023-05-15T12:49:58;101555.72;;;20.96;56.65
71774;BME280;59607;52.130;5.430;2023-05-15T12:52:30;101549.84;;;20.80;56.70
71774;BME280;59607;52.130;5.430;2023-05-15T12:54:59;101549.47;;;20.70;57.96
71774;BME280;59607;52.130;5.430;2023-05-15T12:57:26;101553.47;;;20.54;56.86
71774;BME280;59607;52.130;5.430;2023-05-15T12:59:55;101547.34;;;20.46;58.58
71774;BME280;59607;52.130;5.430;2023-05-15T13:02:21;101550.81;;;20.47;56.86
71774;BME280;59607;52.130;5.430;2023-05-15T13:04:48;101550.06;;;20.79;56.78
71774;BME280;59607;52.130;5.430;2023-05-15T13:07:20;101549.53;;;20.63;56.49
71774;BME280;59607;52.130;5.430;2023-05-15T13:10:01;101546.94;;;20.89;55.96
71774;BME280;59607;52.130;5.430;2023-05-15T13:12:35;101545.06;;;20.96;55.45
71774;BME280;59607;52.130;5.430;2023-05-15T13:15:04;101547.38;;;21.18;54.16
71774;BME280;59607;52.130;5.430;2023-05-15T13:17:35;101543.50;;;21.14;55.52
71774;BME280;59607;52.130;5.430;2023-05-15T13:20:06;101549.16;;;21.24;56.08
71774;BME280;59607;52.130;5.430;2023-05-15T13:22:32;101547.53;;;21.49;55.74
71774;BME280;59607;52.130;5.430;2023-05-15T13:25:03;101542.63;;;21.45;54.79
71774;BME280;59607;52.130;5.430;2023-05-15T13:27:37;101542.53;;;21.33;54.13
71774;BME280;59607;52.130;5.430;2023-05-15T13:30:19;101558.69;;;20.74;56.39
71774;BME280;59607;52.130;5.430;2023-05-15T13:32:48;101558.66;;;20.35;57.03
71774;BME280;59607;52.130;5.430;2023-05-15T13:35:21;101551.97;;;20.12;58.14
71774;BME280;59607;52.130;5.430;2023-05-15T13:37:50;101557.72;;;19.95;58.73